sensor_id;sensor_type;location;lat;lon;timestamp;P1;durP1;ratioP1;P2;durP2;ratioP2
69951;SDS011;60406;48.408;13.392;2022-12-07T00:01:09;15.68;;;11.43;;
69951;SDS011;60406;48.408;13.392;2022-12-07T00:06:15;16.65;;;10.60;;
69951;SDS011;60406;48.408;13.392;2022-12-07T00:11:36;16.55;;;10.43;;
69951;SDS011;60406;48.408;13.392;2022-12-07T00:16:37;13.75;;;10.07;;
69951;SDS011;60406;48.408;13.392;2022-12-07T00:21:39;14.30;;;9.60;;
69951;SDS011;60406;48.408;13.392;2022-12-07T00:27:00;10.98;;;9.60;;
69951;SDS011;60406;48.408;13.392;2022-12-07T00:32:01;13.38;;;10.10;;
69951;SDS011;60406;48.408;13.392;2022-12-07T00:37:01;13.32;;;11.13;;
69951;SDS011;60406;48.408;13.392;2022-12-07T00:42:02;13.73;;;11.23;;
69951;SDS011;60406;48.408;13.392;2022-12-07T00:47:23;11.65;;;9.68;;
69951;SDS011;60406;48.408;13.392;2022-12-07T00:52:24;12.50;;;8.82;;
69951;SDS011;60406;48.408;13.392;2022-12-07T00:57:25;13.43;;;10.45;;
69951;SDS011;60406;48.408;13.392;2022-12-07T01:02:46;14.02;;;10.90;;
69951;SDS011;60406;48.408;13.392;2022-12-07T01:07:47;13.20;;;10.60;;
69951;SDS011;60406;48.408;13.392;2022-12-07T01:12:48;15.60;;;11.25;;
69951;SDS011;60406;48.408;13.392;2022-12-07T01:18:09;13.65;;;10.32;;
69951;SDS011;60406;48.408;13.392;2022-12-07T01:23:11;16.60;;;10.63;;
69951;SDS011;60406;48.408;13.392;2022-12-07T01:28:11;13.10;;;10.20;;
69951;SDS011;60406;48.408;13.392;2022-12-07T01:33:12;12.38;;;9.73;;
69951;SDS011;60406;48.408;13.392;2022-12-07T01:38:13;10.00;;;8.35;;
69951;SDS011;60406;48.408;13.392;2022-12-07T01:43:17;10.23;;;8.65;;
69951;SDS011;60406;48.408;13.392;2022-12-07T01:48:40;10.15;;;8.27;;
69951;SDS011;60406;48.408;13.392;2022-12-07T01:53:43;12.95;;;9.57;;
69951;SDS011;60406;48.408;13.392;2022-12-07T01:58:44;14.23;;;10.52;;
69951;SDS011;60406;48.408;13.392;2022-12-07T02:04:05;15.70;;;12.20;;
69951;SDS011;60406;48.408;13.392;2022-12-07T02:09:06;23.40;;;14.27;;
69951;SDS011;60406;48.408;13.392;2022-12-07T02:14:07;15.88;;;12.35;;
69951;SDS011;60406;48.408;13.392;2022-12-07T02:35:39;16.08;;;12.05;;
69951;SDS011;60406;48.408;13.392;2022-12-07T02:40:55;12.90;;;10.70;;
69951;SDS011;60406;48.408;13.392;2022-12-07T02:46:13;13.70;;;10.48;;
69951;SDS011;60406;48.408;13.392;2022-12-07T02:51:16;13.30;;;9.50;;
69951;SDS011;60406;48.408;13.392;2022-12-07T03:12:21;19.17;;;13.50;;
69951;SDS011;60406;48.408;13.392;2022-12-07T03:17:28;24.88;;;15.55;;
69951;SDS011;60406;48.408;13.392;2022-12-07T03:22:52;22.65;;;17.00;;
69951;SDS011;60406;48.408;13.392;2022-12-07T03:27:56;24.08;;;17.02;;
69951;SDS011;60406;48.408;13.392;2022-12-07T03:33:18;21.70;;;17.97;;
69951;SDS011;60406;48.408;13.392;2022-12-07T03:38:25;16.60;;;13.57;;
69951;SDS011;60406;48.408;13.392;2022-12-07T03:43:55;13.88;;;10.80;;
69951;SDS011;60406;48.408;13.392;2022-12-07T03:48:59;13.38;;;11.07;;
69951;SDS011;60406;48.408;13.392;2022-12-07T03:54:43;16.08;;;11.55;;
69951;SDS011;60406;48.408;13.392;2022-12-07T03:59:48;14.13;;;11.63;;
69951;SDS011;60406;48.408;13.392;2022-12-07T04:04:49;16.13;;;12.35;;
69951;SDS011;60406;48.408;13.392;2022-12-07T04:10:10;16.35;;;12.13;;
69951;SDS011;60406;48.408;13.392;2022-12-07T04:15:11;16.05;;;12.18;;
69951;SDS011;60406;48.408;13.392;2022-12-07T04:20:12;18.00;;;12.57;;
69951;SDS011;60406;48.408;13.392;2022-12-07T04:25:33;20.48;;;12.30;;
69951;SDS011;60406;48.408;13.392;2022-12-07T04:30:34;16.98;;;12.82;;
69951;SDS011;60406;48.408;13.392;2022-12-07T04:35:35;15.07;;;12.13;;
69951;SDS011;60406;48.408;13.392;2022-12-07T04:40:36;15.65;;;12.73;;
69951;SDS011;60406;48.408;13.392;2022-12-07T04:45:37;17.55;;;12.63;;
69951;SDS011;60406;48.408;13.392;2022-12-07T04:50:38;17.48;;;13.15;;
69951;SDS011;60406;48.408;13.392;2022-12-07T04:55:39;14.30;;;11.18;;
69951;SDS011;60406;48.408;13.392;2022-12-07T05:01:00;17.25;;;13.23;;
69951;SDS011;60406;48.408;13.392;2022-12-07T05:06:01;17.55;;;13.10;;
69951;SDS011;60406;48.408;13.392;2022-12-07T05:11:02;15.70;;;12.82;;
69951;SDS011;60406;48.408;13.392;2022-12-07T05:16:24;17.13;;;13.18;;
69951;SDS011;60406;48.408;13.392;2022-12-07T05:21:25;17.92;;;14.00;;
69951;SDS011;60406;48.408;13.392;2022-12-07T05:26:26;16.42;;;13.55;;
69951;SDS011;60406;48.408;13.392;2022-12-07T05:31:47;20.88;;;13.57;;
69951;SDS011;60406;48.408;13.392;2022-12-07T05:36:47;17.02;;;14.20;;
69951;SDS011;60406;48.408;13.392;2022-12-07T05:41:48;18.80;;;13.15;;
69951;SDS011;60406;48.408;13.392;2022-12-07T05:47:14;18.17;;;13.77;;
69951;SDS011;60406;48.408;13.392;2022-12-07T05:52:15;16.10;;;13.32;;
69951;SDS011;60406;48.408;13.392;2022-12-07T05:57:16;16.13;;;12.85;;
69951;SDS011;60406;48.408;13.392;2022-12-07T06:02:37;15.98;;;13.15;;
69951;SDS011;60406;48.408;13.392;2022-12-07T06:07:38;17.15;;;12.43;;
69951;SDS011;60406;48.408;13.392;2022-12-07T06:12:39;19.17;;;14.63;;
69951;SDS011;60406;48.408;13.392;2022-12-07T06:18:00;18.55;;;13.85;;
69951;SDS011;60406;48.408;13.392;2022-12-07T06:23:01;19.92;;;14.77;;
69951;SDS011;60406;48.408;13.392;2022-12-07T06:28:02;19.83;;;13.93;;
69951;SDS011;60406;48.408;13.392;2022-12-07T06:33:02;18.23;;;13.30;;
69951;SDS011;60406;48.408;13.392;2022-12-07T06:38:03;24.75;;;15.75;;
69951;SDS011;60406;48.408;13.392;2022-12-07T06:43:04;36.53;;;22.83;;
69951;SDS011;60406;48.408;13.392;2022-12-07T06:48:05;35.60;;;21.00;;
69951;SDS011;60406;48.408;13.392;2022-12-07T06:53:26;35.15;;;20.10;;
69951;SDS011;60406;48.408;13.392;2022-12-07T06:58:27;33.28;;;21.95;;
69951;SDS011;60406;48.408;13.392;2022-12-07T07:03:28;41.47;;;25.05;;
69951;SDS011;60406;48.408;13.392;2022-12-07T07:08:49;33.67;;;20.30;;
69951;SDS011;60406;48.408;13.392;2022-12-07T07:13:50;48.63;;;31.05;;
69951;SDS011;60406;48.408;13.392;2022-12-07T07:18:51;42.85;;;23.75;;
69951;SDS011;60406;48.408;13.392;2022-12-07T07:24:12;47.00;;;25.60;;
69951;SDS011;60406;48.408;13.392;2022-12-07T07:29:13;37.60;;;20.77;;
69951;SDS011;60406;48.408;13.392;2022-12-07T07:34:14;58.55;;;26.67;;
69951;SDS011;60406;48.408;13.392;2022-12-07T07:39:15;31.90;;;19.70;;
69951;SDS011;60406;48.408;13.392;2022-12-07T07:44:16;35.20;;;19.95;;
69951;SDS011;60406;48.408;13.392;2022-12-07T07:49:17;26.02;;;18.83;;
69951;SDS011;60406;48.408;13.392;2022-12-07T07:54:17;29.55;;;19.35;;
69951;SDS011;60406;48.408;13.392;2022-12-07T07:59:39;27.60;;;19.45;;
69951;SDS011;60406;48.408;13.392;2022-12-07T08:04:39;37.95;;;19.48;;
69951;SDS011;60406;48.408;13.392;2022-12-07T08:09:40;44.70;;;22.55;;
69951;SDS011;60406;48.408;13.392;2022-12-07T08:15:02;31.88;;;21.92;;
69951;SDS011;60406;48.408;13.392;2022-12-07T08:20:03;28.75;;;20.40;;
69951;SDS011;60406;48.408;13.392;2022-12-07T08:25:04;23.55;;;17.60;;
69951;SDS011;60406;48.408;13.392;2022-12-07T08:30:26;25.20;;;19.88;;
69951;SDS011;60406;48.408;13.392;2022-12-07T08:35:27;28.75;;;20.80;;
69951;SDS011;60406;48.408;13.392;2022-12-07T08:40:28;24.85;;;17.13;;
69951;SDS011;60406;48.408;13.392;2022-12-07T08:45:50;22.42;;;17.73;;
69951;SDS011;60406;48.408;13.392;2022-12-07T08:51:01;24.88;;;18.45;;
69951;SDS011;60406;48.408;13.392;2022-12-07T08:56:23;20.40;;;15.30;;
69951;SDS011;60406;48.408;13.392;2022-12-07T09:01:24;23.48;;;17.55;;
69951;SDS011;60406;48.408;13.392;2022-12-07T09:06:25;23.52;;;18.15;;
69951;SDS011;60406;48.408;13.392;2022-12-07T09:11:46;31.00;;;17.35;;
69951;SDS011;60406;48.408;13.392;2022-12-07T09:16:47;24.60;;;17.80;;
69951;SDS011;60406;48.408;13.392;2022-12-07T09:21:48;25.17;;;17.48;;
69951;SDS011;60406;48.408;13.392;2022-12-07T09:27:09;24.92;;;17.92;;
69951;SDS011;60406;48.408;13.392;2022-12-07T09:32:10;26.80;;;18.45;;
69951;SDS011;60406;48.408;13.392;2022-12-07T09:37:11;23.98;;;17.45;;
69951;SDS011;60406;48.408;13.392;2022-12-07T09:42:21;25.42;;;17.90;;
69951;SDS011;60406;48.408;13.392;2022-12-07T09:52:28;21.98;;;15.77;;
69951;SDS011;60406;48.408;13.392;2022-12-07T09:57:32;26.65;;;15.88;;
69951;SDS011;60406;48.408;13.392;2022-12-07T10:03:01;21.98;;;16.25;;
69951;SDS011;60406;48.408;13.392;2022-12-07T10:08:03;35.22;;;24.45;;
69951;SDS011;60406;48.408;13.392;2022-12-07T10:13:37;18.90;;;15.02;;
69951;SDS011;60406;48.408;13.392;2022-12-07T10:19:16;22.98;;;18.33;;
69951;SDS011;60406;48.408;13.392;2022-12-07T10:24:40;20.88;;;16.02;;
69951;SDS011;60406;48.408;13.392;2022-12-07T10:29:41;15.82;;;11.77;;
69951;SDS011;60406;48.408;13.392;2022-12-07T10:35:18;11.65;;;10.00;;
69951;SDS011;60406;48.408;13.392;2022-12-07T10:40:40;12.40;;;10.32;;
69951;SDS011;60406;48.408;13.392;2022-12-07T11:08:51;18.63;;;13.68;;
69951;SDS011;60406;48.408;13.392;2022-12-07T11:24:48;14.45;;;10.23;;
69951;SDS011;60406;48.408;13.392;2022-12-07T11:40:49;25.77;;;12.95;;
69951;SDS011;60406;48.408;13.392;2022-12-07T11:45:54;18.80;;;13.30;;
69951;SDS011;60406;48.408;13.392;2022-12-07T11:50:59;16.83;;;11.73;;
69951;SDS011;60406;48.408;13.392;2022-12-07T11:56:09;21.80;;;13.75;;
69951;SDS011;60406;48.408;13.392;2022-12-07T12:06:22;19.45;;;13.38;;
69951;SDS011;60406;48.408;13.392;2022-12-07T12:11:39;21.25;;;16.00;;
69951;SDS011;60406;48.408;13.392;2022-12-07T12:22:40;18.50;;;12.80;;
69951;SDS011;60406;48.408;13.392;2022-12-07T12:28:05;18.40;;;11.55;;
69951;SDS011;60406;48.408;13.392;2022-12-07T12:33:14;19.40;;;14.00;;
69951;SDS011;60406;48.408;13.392;2022-12-07T12:38:51;15.18;;;11.30;;
69951;SDS011;60406;48.408;13.392;2022-12-07T12:49:38;17.95;;;13.05;;
69951;SDS011;60406;48.408;13.392;2022-12-07T13:00:29;15.57;;;10.30;;
69951;SDS011;60406;48.408;13.392;2022-12-07T13:05:30;12.63;;;9.85;;
69951;SDS011;60406;48.408;13.392;2022-12-07T13:10:34;20.40;;;12.38;;
69951;SDS011;60406;48.408;13.392;2022-12-07T13:31:36;15.80;;;12.33;;
69951;SDS011;60406;48.408;13.392;2022-12-07T13:36:59;21.15;;;14.38;;
69951;SDS011;60406;48.408;13.392;2022-12-07T13:42:08;23.83;;;17.92;;
69951;SDS011;60406;48.408;13.392;2022-12-07T13:47:20;23.17;;;16.33;;
69951;SDS011;60406;48.408;13.392;2022-12-07T13:52:30;17.93;;;14.10;;
69951;SDS011;60406;48.408;13.392;2022-12-07T13:57:31;18.45;;;13.82;;
69951;SDS011;60406;48.408;13.392;2022-12-07T14:02:34;21.15;;;15.82;;
69951;SDS011;60406;48.408;13.392;2022-12-07T14:07:35;22.90;;;16.75;;
69951;SDS011;60406;48.408;13.392;2022-12-07T14:12:49;17.83;;;12.90;;
69951;SDS011;60406;48.408;13.392;2022-12-07T14:17:51;25.77;;;17.58;;
69951;SDS011;60406;48.408;13.392;2022-12-07T14:22:56;20.33;;;15.30;;
69951;SDS011;60406;48.408;13.392;2022-12-07T14:27:58;50.63;;;32.30;;
69951;SDS011;60406;48.408;13.392;2022-12-07T14:33:20;37.50;;;26.17;;
69951;SDS011;60406;48.408;13.392;2022-12-07T14:38:21;30.15;;;20.83;;
69951;SDS011;60406;48.408;13.392;2022-12-07T14:43:22;32.15;;;21.50;;
69951;SDS011;60406;48.408;13.392;2022-12-07T14:48:43;33.38;;;21.67;;
69951;SDS011;60406;48.408;13.392;2022-12-07T14:53:46;30.25;;;21.75;;
69951;SDS011;60406;48.408;13.392;2022-12-07T14:58:49;32.92;;;21.20;;
69951;SDS011;60406;48.408;13.392;2022-12-07T15:04:10;31.77;;;21.60;;
69951;SDS011;60406;48.408;13.392;2022-12-07T15:09:11;29.73;;;21.33;;
69951;SDS011;60406;48.408;13.392;2022-12-07T15:14:12;33.75;;;24.60;;
69951;SDS011;60406;48.408;13.392;2022-12-07T15:19:33;45.75;;;30.17;;
69951;SDS011;60406;48.408;13.392;2022-12-07T15:24:34;36.95;;;26.05;;
69951;SDS011;60406;48.408;13.392;2022-12-07T15:29:35;33.80;;;26.30;;
69951;SDS011;60406;48.408;13.392;2022-12-07T15:34:36;31.83;;;22.42;;
69951;SDS011;60406;48.408;13.392;2022-12-07T15:39:37;30.75;;;21.48;;
69951;SDS011;60406;48.408;13.392;2022-12-07T15:44:37;46.17;;;29.63;;
69951;SDS011;60406;48.408;13.392;2022-12-07T15:49:38;50.20;;;37.00;;
69951;SDS011;60406;48.408;13.392;2022-12-07T15:54:39;37.72;;;23.33;;
69951;SDS011;60406;48.408;13.392;2022-12-07T15:59:40;37.17;;;22.83;;
69951;SDS011;60406;48.408;13.392;2022-12-07T16:04:41;43.28;;;25.08;;
69951;SDS011;60406;48.408;13.392;2022-12-07T16:10:02;62.20;;;34.15;;
69951;SDS011;60406;48.408;13.392;2022-12-07T16:15:04;43.97;;;28.20;;
69951;SDS011;60406;48.408;13.392;2022-12-07T16:20:05;41.28;;;31.83;;
69951;SDS011;60406;48.408;13.392;2022-12-07T16:25:27;31.48;;;23.48;;
69951;SDS011;60406;48.408;13.392;2022-12-07T16:30:27;28.38;;;21.38;;
69951;SDS011;60406;48.408;13.392;2022-12-07T16:35:28;34.05;;;25.05;;
69951;SDS011;60406;48.408;13.392;2022-12-07T16:40:49;38.20;;;24.80;;
69951;SDS011;60406;48.408;13.392;2022-12-07T16:45:50;34.03;;;20.17;;
69951;SDS011;60406;48.408;13.392;2022-12-07T16:50:51;31.92;;;21.13;;
69951;SDS011;60406;48.408;13.392;2022-12-07T16:56:13;27.85;;;18.80;;
69951;SDS011;60406;48.408;13.392;2022-12-07T17:01:16;30.80;;;22.25;;
69951;SDS011;60406;48.408;13.392;2022-12-07T17:06:19;33.88;;;25.33;;
69951;SDS011;60406;48.408;13.392;2022-12-07T17:11:43;41.58;;;30.73;;
69951;SDS011;60406;48.408;13.392;2022-12-07T17:16:44;42.45;;;30.25;;
69951;SDS011;60406;48.408;13.392;2022-12-07T17:21:45;24.77;;;17.00;;
69951;SDS011;60406;48.408;13.392;2022-12-07T17:27:06;24.15;;;16.88;;
69951;SDS011;60406;48.408;13.392;2022-12-07T17:32:07;47.50;;;30.20;;
69951;SDS011;60406;48.408;13.392;2022-12-07T17:37:08;42.00;;;26.15;;
69951;SDS011;60406;48.408;13.392;2022-12-07T17:42:29;28.38;;;19.85;;
69951;SDS011;60406;48.408;13.392;2022-12-07T17:47:30;42.60;;;25.45;;
69951;SDS011;60406;48.408;13.392;2022-12-07T17:52:31;26.98;;;18.48;;
69951;SDS011;60406;48.408;13.392;2022-12-07T17:57:52;25.48;;;16.05;;
69951;SDS011;60406;48.408;13.392;2022-12-07T18:02:53;26.98;;;19.00;;
69951;SDS011;60406;48.408;13.392;2022-12-07T18:07:54;37.50;;;19.42;;
69951;SDS011;60406;48.408;13.392;2022-12-07T18:12:55;22.10;;;14.05;;
69951;SDS011;60406;48.408;13.392;2022-12-07T18:17:55;23.70;;;15.48;;
69951;SDS011;60406;48.408;13.392;2022-12-07T18:22:56;22.45;;;15.50;;
69951;SDS011;60406;48.408;13.392;2022-12-07T18:27:58;23.55;;;15.85;;
69951;SDS011;60406;48.408;13.392;2022-12-07T18:32:59;22.27;;;15.45;;
69951;SDS011;60406;48.408;13.392;2022-12-07T18:38:00;27.77;;;18.60;;
69951;SDS011;60406;48.408;13.392;2022-12-07T18:43:01;26.27;;;16.42;;
69951;SDS011;60406;48.408;13.392;2022-12-07T18:48:22;24.20;;;16.60;;
69951;SDS011;60406;48.408;13.392;2022-12-07T18:53:23;27.35;;;17.77;;
69951;SDS011;60406;48.408;13.392;2022-12-07T18:58:24;37.25;;;20.92;;
69951;SDS011;60406;48.408;13.392;2022-12-07T19:03:45;31.75;;;19.35;;
69951;SDS011;60406;48.408;13.392;2022-12-07T19:08:46;42.88;;;23.65;;
69951;SDS011;60406;48.408;13.392;2022-12-07T19:13:47;45.38;;;24.38;;
69951;SDS011;60406;48.408;13.392;2022-12-07T19:19:08;47.30;;;25.00;;
69951;SDS011;60406;48.408;13.392;2022-12-07T19:24:09;36.72;;;23.55;;
69951;SDS011;60406;48.408;13.392;2022-12-07T19:29:10;29.13;;;19.77;;
69951;SDS011;60406;48.408;13.392;2022-12-07T19:34:11;36.13;;;22.25;;
69951;SDS011;60406;48.408;13.392;2022-12-07T19:39:13;34.00;;;20.83;;
69951;SDS011;60406;48.408;13.392;2022-12-07T19:44:23;28.15;;;20.10;;
69951;SDS011;60406;48.408;13.392;2022-12-07T19:49:26;28.27;;;19.67;;
69951;SDS011;60406;48.408;13.392;2022-12-07T19:54:28;30.13;;;19.10;;
69951;SDS011;60406;48.408;13.392;2022-12-07T19:59:30;31.10;;;19.10;;
69951;SDS011;60406;48.408;13.392;2022-12-07T20:04:32;36.65;;;23.50;;
69951;SDS011;60406;48.408;13.392;2022-12-07T20:09:33;32.88;;;21.35;;
69951;SDS011;60406;48.408;13.392;2022-12-07T20:14:54;41.53;;;28.00;;
69951;SDS011;60406;48.408;13.392;2022-12-07T20:19:55;36.40;;;23.85;;
69951;SDS011;60406;48.408;13.392;2022-12-07T20:24:56;36.03;;;20.60;;
69951;SDS011;60406;48.408;13.392;2022-12-07T20:30:17;59.83;;;44.15;;
69951;SDS011;60406;48.408;13.392;2022-12-07T20:35:18;33.13;;;23.98;;
69951;SDS011;60406;48.408;13.392;2022-12-07T20:40:19;30.33;;;22.05;;
69951;SDS011;60406;48.408;13.392;2022-12-07T20:45:42;32.85;;;19.98;;
69951;SDS011;60406;48.408;13.392;2022-12-07T20:50:47;31.45;;;21.85;;
69951;SDS011;60406;48.408;13.392;2022-12-07T20:55:48;32.92;;;21.63;;
69951;SDS011;60406;48.408;13.392;2022-12-07T21:00:49;32.40;;;21.40;;
69951;SDS011;60406;48.408;13.392;2022-12-07T21:05:50;34.88;;;21.70;;
69951;SDS011;60406;48.408;13.392;2022-12-07T21:10:51;64.80;;;49.00;;
69951;SDS011;60406;48.408;13.392;2022-12-07T21:16:16;48.05;;;31.30;;
69951;SDS011;60406;48.408;13.392;2022-12-07T21:21:21;49.63;;;33.22;;
69951;SDS011;60406;48.408;13.392;2022-12-07T21:26:42;42.58;;;26.35;;
69951;SDS011;60406;48.408;13.392;2022-12-07T21:31:43;37.33;;;23.90;;
69951;SDS011;60406;48.408;13.392;2022-12-07T21:36:44;32.22;;;22.10;;
69951;SDS011;60406;48.408;13.392;2022-12-07T21:42:05;34.38;;;23.85;;
69951;SDS011;60406;48.408;13.392;2022-12-07T21:47:06;36.80;;;26.33;;
69951;SDS011;60406;48.408;13.392;2022-12-07T21:52:07;36.72;;;26.77;;
69951;SDS011;60406;48.408;13.392;2022-12-07T21:57:30;35.13;;;24.73;;
69951;SDS011;60406;48.408;13.392;2022-12-07T22:02:31;49.65;;;35.17;;
69951;SDS011;60406;48.408;13.392;2022-12-07T22:07:32;49.60;;;34.25;;
69951;SDS011;60406;48.408;13.392;2022-12-07T22:12:54;42.88;;;26.67;;
69951;SDS011;60406;48.408;13.392;2022-12-07T22:17:58;33.80;;;23.40;;
69951;SDS011;60406;48.408;13.392;2022-12-07T22:22:59;47.08;;;32.42;;
69951;SDS011;60406;48.408;13.392;2022-12-07T22:28:20;29.38;;;20.27;;
69951;SDS011;60406;48.408;13.392;2022-12-07T22:33:21;29.23;;;18.77;;
69951;SDS011;60406;48.408;13.392;2022-12-07T22:38:22;28.08;;;19.27;;
69951;SDS011;60406;48.408;13.392;2022-12-07T22:43:43;31.15;;;21.67;;
69951;SDS011;60406;48.408;13.392;2022-12-07T22:48:44;28.00;;;19.95;;
69951;SDS011;60406;48.408;13.392;2022-12-07T22:53:45;33.10;;;24.52;;
69951;SDS011;60406;48.408;13.392;2022-12-07T22:59:07;29.00;;;19.67;;
69951;SDS011;60406;48.408;13.392;2022-12-07T23:04:08;26.20;;;17.95;;
69951;SDS011;60406;48.408;13.392;2022-12-07T23:09:09;30.23;;;19.60;;
69951;SDS011;60406;48.408;13.392;2022-12-07T23:14:32;26.85;;;18.58;;
69951;SDS011;60406;48.408;13.392;2022-12-07T23:19:34;29.65;;;18.50;;
69951;SDS011;60406;48.408;13.392;2022-12-07T23:24:35;32.13;;;20.83;;
69951;SDS011;60406;48.408;13.392;2022-12-07T23:29:56;70.25;;;49.42;;
69951;SDS011;60406;48.408;13.392;2022-12-07T23:34:57;62.40;;;42.47;;
69951;SDS011;60406;48.408;13.392;2022-12-07T23:39:58;40.03;;;27.15;;
69951;SDS011;60406;48.408;13.392;2022-12-07T23:44:59;27.90;;;19.42;;
69951;SDS011;60406;48.408;13.392;2022-12-07T23:50:00;32.10;;;19.00;;
69951;SDS011;60406;48.408;13.392;2022-12-07T23:55:01;29.02;;;19.50;;
